sensor_id;sensor_type;location;lat;lon;timestamp;P1;durP1;ratioP1;P2;durP2;ratioP2
45490;SDS011;31237;45.586;13.782;2022-08-24T00:01:05;2.53;;;1.08;;
45490;SDS011;31237;45.586;13.782;2022-08-24T00:03:33;1.33;;;1.05;;
45490;SDS011;31237;45.586;13.782;2022-08-24T00:05:59;1.10;;;0.95;;
45490;SDS011;31237;45.586;13.782;2022-08-24T00:08:26;1.30;;;0.90;;
45490;SDS011;31237;45.586;13.782;2022-08-24T00:10:52;1.55;;;1.10;;
45490;SDS011;31237;45.586;13.782;2022-08-24T00:13:18;2.03;;;1.10;;
45490;SDS011;31237;45.586;13.782;2022-08-24T00:15:44;1.40;;;0.90;;
45490;SDS011;31237;45.586;13.782;2022-08-24T00:18:10;1.50;;;0.98;;
45490;SDS011;31237;45.586;13.782;2022-08-24T00:20:37;1.88;;;1.00;;
45490;SDS011;31237;45.586;13.782;2022-08-24T00:23:03;2.13;;;1.25;;
45490;SDS011;31237;45.586;13.782;2022-08-24T00:25:30;1.13;;;0.90;;
45490;SDS011;31237;45.586;13.782;2022-08-24T00:27:56;1.88;;;1.05;;
45490;SDS011;31237;45.586;13.782;2022-08-24T00:30:22;2.30;;;1.10;;
45490;SDS011;31237;45.586;13.782;2022-08-24T00:32:48;2.08;;;1.23;;
45490;SDS011;31237;45.586;13.782;2022-08-24T00:35:15;1.20;;;0.95;;
45490;SDS011;31237;45.586;13.782;2022-08-24T00:37:42;1.65;;;0.90;;
45490;SDS011;31237;45.586;13.782;2022-08-24T00:40:10;1.08;;;0.85;;
45490;SDS011;31237;45.586;13.782;2022-08-24T00:42:42;2.65;;;0.90;;
45490;SDS011;31237;45.586;13.782;2022-08-24T00:45:09;4.22;;;1.10;;
45490;SDS011;31237;45.586;13.782;2022-08-24T00:48:10;1.38;;;1.08;;
45490;SDS011;31237;45.586;13.782;2022-08-24T00:53:05;1.73;;;1.00;;
45490;SDS011;31237;45.586;13.782;2022-08-24T00:55:36;1.35;;;0.93;;
45490;SDS011;31237;45.586;13.782;2022-08-24T00:58:12;2.25;;;1.15;;
45490;SDS011;31237;45.586;13.782;2022-08-24T01:00:44;1.00;;;0.80;;
45490;SDS011;31237;45.586;13.782;2022-08-24T01:03:17;1.40;;;1.00;;
45490;SDS011;31237;45.586;13.782;2022-08-24T01:05:43;1.48;;;0.95;;
45490;SDS011;31237;45.586;13.782;2022-08-24T01:08:10;1.30;;;1.00;;
45490;SDS011;31237;45.586;13.782;2022-08-24T01:10:41;3.72;;;1.08;;
45490;SDS011;31237;45.586;13.782;2022-08-24T01:13:09;1.00;;;0.88;;
45490;SDS011;31237;45.586;13.782;2022-08-24T01:15:38;1.35;;;1.00;;
45490;SDS011;31237;45.586;13.782;2022-08-24T01:18:05;2.30;;;1.00;;
45490;SDS011;31237;45.586;13.782;2022-08-24T01:21:07;3.03;;;0.98;;
45490;SDS011;31237;45.586;13.782;2022-08-24T01:24:09;2.85;;;0.82;;
45490;SDS011;31237;45.586;13.782;2022-08-24T01:26:42;1.25;;;0.90;;
45490;SDS011;31237;45.586;13.782;2022-08-24T01:29:14;1.10;;;0.82;;
45490;SDS011;31237;45.586;13.782;2022-08-24T01:31:43;1.42;;;1.00;;
45490;SDS011;31237;45.586;13.782;2022-08-24T01:34:08;1.55;;;0.90;;
45490;SDS011;31237;45.586;13.782;2022-08-24T01:36:38;1.45;;;1.00;;
45490;SDS011;31237;45.586;13.782;2022-08-24T01:41:45;2.38;;;0.90;;
45490;SDS011;31237;45.586;13.782;2022-08-24T01:44:12;2.20;;;1.10;;
45490;SDS011;31237;45.586;13.782;2022-08-24T01:46:42;2.08;;;0.80;;
45490;SDS011;31237;45.586;13.782;2022-08-24T01:51:38;1.52;;;1.00;;
45490;SDS011;31237;45.586;13.782;2022-08-24T01:54:04;1.30;;;0.80;;
45490;SDS011;31237;45.586;13.782;2022-08-24T01:56:31;0.80;;;0.80;;
45490;SDS011;31237;45.586;13.782;2022-08-24T01:58:57;1.70;;;1.08;;
45490;SDS011;31237;45.586;13.782;2022-08-24T02:01:24;1.15;;;0.95;;
45490;SDS011;31237;45.586;13.782;2022-08-24T02:03:51;1.15;;;0.85;;
45490;SDS011;31237;45.586;13.782;2022-08-24T02:06:17;2.17;;;1.00;;
45490;SDS011;31237;45.586;13.782;2022-08-24T02:08:43;1.35;;;0.90;;
45490;SDS011;31237;45.586;13.782;2022-08-24T02:11:09;2.05;;;1.10;;
45490;SDS011;31237;45.586;13.782;2022-08-24T02:13:36;1.35;;;0.90;;
45490;SDS011;31237;45.586;13.782;2022-08-24T02:16:04;1.17;;;0.88;;
45490;SDS011;31237;45.586;13.782;2022-08-24T02:18:31;1.17;;;0.90;;
45490;SDS011;31237;45.586;13.782;2022-08-24T02:20:57;2.00;;;1.10;;
45490;SDS011;31237;45.586;13.782;2022-08-24T02:23:24;1.98;;;1.10;;
45490;SDS011;31237;45.586;13.782;2022-08-24T02:25:49;1.70;;;1.05;;
45490;SDS011;31237;45.586;13.782;2022-08-24T02:28:15;0.75;;;0.70;;
45490;SDS011;31237;45.586;13.782;2022-08-24T02:30:42;1.65;;;1.00;;
45490;SDS011;31237;45.586;13.782;2022-08-24T02:33:08;0.93;;;0.73;;
45490;SDS011;31237;45.586;13.782;2022-08-24T02:35:34;1.52;;;0.90;;
45490;SDS011;31237;45.586;13.782;2022-08-24T02:38:00;1.20;;;0.90;;
45490;SDS011;31237;45.586;13.782;2022-08-24T02:40:27;6.65;;;1.00;;
45490;SDS011;31237;45.586;13.782;2022-08-24T02:42:53;1.75;;;0.80;;
45490;SDS011;31237;45.586;13.782;2022-08-24T02:45:19;1.23;;;0.90;;
45490;SDS011;31237;45.586;13.782;2022-08-24T02:47:45;0.93;;;0.80;;
45490;SDS011;31237;45.586;13.782;2022-08-24T02:50:12;1.25;;;0.90;;
45490;SDS011;31237;45.586;13.782;2022-08-24T02:52:40;2.58;;;1.00;;
45490;SDS011;31237;45.586;13.782;2022-08-24T02:55:09;2.03;;;0.90;;
45490;SDS011;31237;45.586;13.782;2022-08-24T02:57:36;1.83;;;1.00;;
45490;SDS011;31237;45.586;13.782;2022-08-24T03:00:04;1.38;;;1.10;;
45490;SDS011;31237;45.586;13.782;2022-08-24T03:02:33;1.60;;;1.00;;
45490;SDS011;31237;45.586;13.782;2022-08-24T03:04:59;1.23;;;0.85;;
45490;SDS011;31237;45.586;13.782;2022-08-24T03:07:25;1.65;;;1.00;;
45490;SDS011;31237;45.586;13.782;2022-08-24T03:09:52;1.80;;;1.08;;
45490;SDS011;31237;45.586;13.782;2022-08-24T03:12:18;1.05;;;0.82;;
45490;SDS011;31237;45.586;13.782;2022-08-24T03:14:43;1.80;;;1.00;;
45490;SDS011;31237;45.586;13.782;2022-08-24T03:17:09;0.93;;;0.80;;
45490;SDS011;31237;45.586;13.782;2022-08-24T03:19:35;1.63;;;1.00;;
45490;SDS011;31237;45.586;13.782;2022-08-24T03:22:01;1.77;;;1.10;;
45490;SDS011;31237;45.586;13.782;2022-08-24T03:24:27;1.67;;;1.10;;
45490;SDS011;31237;45.586;13.782;2022-08-24T03:26:53;1.08;;;0.98;;
45490;SDS011;31237;45.586;13.782;2022-08-24T03:29:19;0.80;;;0.80;;
45490;SDS011;31237;45.586;13.782;2022-08-24T03:31:45;3.70;;;1.17;;
45490;SDS011;31237;45.586;13.782;2022-08-24T03:34:12;1.70;;;1.05;;
45490;SDS011;31237;45.586;13.782;2022-08-24T03:36:39;1.20;;;0.93;;
45490;SDS011;31237;45.586;13.782;2022-08-24T03:39:09;1.42;;;1.00;;
45490;SDS011;31237;45.586;13.782;2022-08-24T03:41:35;1.38;;;0.98;;
45490;SDS011;31237;45.586;13.782;2022-08-24T03:44:01;2.17;;;1.67;;
45490;SDS011;31237;45.586;13.782;2022-08-24T03:46:27;1.35;;;1.00;;
45490;SDS011;31237;45.586;13.782;2022-08-24T03:48:57;2.35;;;1.00;;
45490;SDS011;31237;45.586;13.782;2022-08-24T03:51:24;1.70;;;1.10;;
45490;SDS011;31237;45.586;13.782;2022-08-24T03:53:51;1.75;;;1.10;;
45490;SDS011;31237;45.586;13.782;2022-08-24T03:56:18;0.93;;;0.82;;
45490;SDS011;31237;45.586;13.782;2022-08-24T03:58:44;2.05;;;1.02;;
45490;SDS011;31237;45.586;13.782;2022-08-24T04:01:10;1.60;;;0.90;;
45490;SDS011;31237;45.586;13.782;2022-08-24T04:03:37;1.98;;;1.08;;
45490;SDS011;31237;45.586;13.782;2022-08-24T04:06:05;1.95;;;1.05;;
45490;SDS011;31237;45.586;13.782;2022-08-24T04:08:32;1.23;;;0.90;;
45490;SDS011;31237;45.586;13.782;2022-08-24T04:10:59;1.60;;;1.00;;
45490;SDS011;31237;45.586;13.782;2022-08-24T04:13:25;1.70;;;0.88;;
45490;SDS011;31237;45.586;13.782;2022-08-24T04:15:56;2.42;;;1.10;;
45490;SDS011;31237;45.586;13.782;2022-08-24T04:18:22;1.42;;;1.00;;
45490;SDS011;31237;45.586;13.782;2022-08-24T04:20:48;1.60;;;1.00;;
45490;SDS011;31237;45.586;13.782;2022-08-24T04:23:14;1.38;;;0.90;;
45490;SDS011;31237;45.586;13.782;2022-08-24T04:25:49;1.65;;;1.02;;
45490;SDS011;31237;45.586;13.782;2022-08-24T04:28:16;1.67;;;1.00;;
45490;SDS011;31237;45.586;13.782;2022-08-24T04:30:43;2.00;;;1.00;;
45490;SDS011;31237;45.586;13.782;2022-08-24T04:33:14;1.40;;;0.90;;
45490;SDS011;31237;45.586;13.782;2022-08-24T04:35:42;0.95;;;0.70;;
45490;SDS011;31237;45.586;13.782;2022-08-24T04:38:11;1.95;;;0.82;;
45490;SDS011;31237;45.586;13.782;2022-08-24T04:40:38;0.88;;;0.88;;
45490;SDS011;31237;45.586;13.782;2022-08-24T04:43:05;1.63;;;1.00;;
45490;SDS011;31237;45.586;13.782;2022-08-24T04:45:31;1.15;;;0.82;;
45490;SDS011;31237;45.586;13.782;2022-08-24T04:47:58;1.35;;;1.05;;
45490;SDS011;31237;45.586;13.782;2022-08-24T04:50:24;1.88;;;0.98;;
45490;SDS011;31237;45.586;13.782;2022-08-24T04:52:50;1.45;;;0.90;;
45490;SDS011;31237;45.586;13.782;2022-08-24T04:55:16;1.08;;;0.80;;
45490;SDS011;31237;45.586;13.782;2022-08-24T04:57:42;1.40;;;0.90;;
45490;SDS011;31237;45.586;13.782;2022-08-24T05:00:08;1.27;;;0.90;;
45490;SDS011;31237;45.586;13.782;2022-08-24T05:02:35;1.50;;;1.00;;
45490;SDS011;31237;45.586;13.782;2022-08-24T05:05:04;2.13;;;1.10;;
45490;SDS011;31237;45.586;13.782;2022-08-24T05:07:31;1.25;;;0.90;;
45490;SDS011;31237;45.586;13.782;2022-08-24T05:09:57;1.33;;;0.80;;
45490;SDS011;31237;45.586;13.782;2022-08-24T05:12:22;4.18;;;1.00;;
45490;SDS011;31237;45.586;13.782;2022-08-24T05:14:48;1.45;;;0.95;;
45490;SDS011;31237;45.586;13.782;2022-08-24T05:17:14;1.42;;;0.90;;
45490;SDS011;31237;45.586;13.782;2022-08-24T05:19:39;4.25;;;0.93;;
45490;SDS011;31237;45.586;13.782;2022-08-24T05:22:05;1.42;;;0.95;;
45490;SDS011;31237;45.586;13.782;2022-08-24T05:24:31;1.80;;;1.00;;
45490;SDS011;31237;45.586;13.782;2022-08-24T05:26:57;1.00;;;0.82;;
45490;SDS011;31237;45.586;13.782;2022-08-24T05:29:24;1.02;;;0.90;;
45490;SDS011;31237;45.586;13.782;2022-08-24T05:31:51;0.90;;;0.75;;
45490;SDS011;31237;45.586;13.782;2022-08-24T05:34:17;0.60;;;0.60;;
45490;SDS011;31237;45.586;13.782;2022-08-24T05:36:43;1.45;;;1.00;;
45490;SDS011;31237;45.586;13.782;2022-08-24T05:39:10;1.20;;;0.90;;
45490;SDS011;31237;45.586;13.782;2022-08-24T05:41:38;1.23;;;0.95;;
45490;SDS011;31237;45.586;13.782;2022-08-24T05:44:06;1.80;;;0.90;;
45490;SDS011;31237;45.586;13.782;2022-08-24T05:46:33;0.82;;;0.80;;
45490;SDS011;31237;45.586;13.782;2022-08-24T05:48:58;3.22;;;0.90;;
45490;SDS011;31237;45.586;13.782;2022-08-24T05:51:25;1.13;;;0.90;;
45490;SDS011;31237;45.586;13.782;2022-08-24T05:53:52;1.60;;;1.00;;
45490;SDS011;31237;45.586;13.782;2022-08-24T05:56:19;1.40;;;0.90;;
45490;SDS011;31237;45.586;13.782;2022-08-24T05:58:45;1.48;;;0.90;;
45490;SDS011;31237;45.586;13.782;2022-08-24T06:01:21;1.52;;;0.90;;
45490;SDS011;31237;45.586;13.782;2022-08-24T06:03:49;1.05;;;0.88;;
45490;SDS011;31237;45.586;13.782;2022-08-24T06:06:17;3.05;;;1.00;;
45490;SDS011;31237;45.586;13.782;2022-08-24T06:08:44;1.98;;;1.10;;
45490;SDS011;31237;45.586;13.782;2022-08-24T06:13:55;2.85;;;1.23;;
45490;SDS011;31237;45.586;13.782;2022-08-24T06:16:24;1.42;;;0.93;;
45490;SDS011;31237;45.586;13.782;2022-08-24T06:18:50;1.65;;;1.13;;
45490;SDS011;31237;45.586;13.782;2022-08-24T06:21:19;1.33;;;0.90;;
45490;SDS011;31237;45.586;13.782;2022-08-24T06:23:47;2.80;;;1.23;;
45490;SDS011;31237;45.586;13.782;2022-08-24T06:26:13;2.53;;;1.10;;
45490;SDS011;31237;45.586;13.782;2022-08-24T06:28:58;1.27;;;0.93;;
45490;SDS011;31237;45.586;13.782;2022-08-24T06:31:27;1.95;;;0.90;;
45490;SDS011;31237;45.586;13.782;2022-08-24T06:33:53;1.90;;;1.08;;
45490;SDS011;31237;45.586;13.782;2022-08-24T06:36:19;1.17;;;0.90;;
45490;SDS011;31237;45.586;13.782;2022-08-24T06:38:45;1.25;;;1.00;;
45490;SDS011;31237;45.586;13.782;2022-08-24T06:41:11;1.38;;;0.90;;
45490;SDS011;31237;45.586;13.782;2022-08-24T06:43:37;1.55;;;0.90;;
45490;SDS011;31237;45.586;13.782;2022-08-24T06:46:03;1.65;;;1.00;;
45490;SDS011;31237;45.586;13.782;2022-08-24T06:48:30;2.22;;;1.10;;
45490;SDS011;31237;45.586;13.782;2022-08-24T06:50:56;2.78;;;1.00;;
45490;SDS011;31237;45.586;13.782;2022-08-24T06:53:23;2.70;;;1.23;;
45490;SDS011;31237;45.586;13.782;2022-08-24T06:55:51;1.48;;;1.00;;
45490;SDS011;31237;45.586;13.782;2022-08-24T06:58:19;1.45;;;1.00;;
45490;SDS011;31237;45.586;13.782;2022-08-24T07:00:45;2.55;;;1.27;;
45490;SDS011;31237;45.586;13.782;2022-08-24T07:03:12;1.90;;;1.10;;
45490;SDS011;31237;45.586;13.782;2022-08-24T07:05:38;2.03;;;1.10;;
45490;SDS011;31237;45.586;13.782;2022-08-24T07:08:04;2.50;;;0.98;;
45490;SDS011;31237;45.586;13.782;2022-08-24T07:10:31;1.60;;;1.00;;
45490;SDS011;31237;45.586;13.782;2022-08-24T07:12:58;1.48;;;1.10;;
45490;SDS011;31237;45.586;13.782;2022-08-24T07:15:24;1.42;;;1.00;;
45490;SDS011;31237;45.586;13.782;2022-08-24T07:17:50;1.02;;;0.90;;
45490;SDS011;31237;45.586;13.782;2022-08-24T07:20:17;2.45;;;1.27;;
45490;SDS011;31237;45.586;13.782;2022-08-24T07:22:43;1.65;;;1.00;;
45490;SDS011;31237;45.586;13.782;2022-08-24T07:25:09;2.47;;;1.13;;
45490;SDS011;31237;45.586;13.782;2022-08-24T07:27:36;1.77;;;1.10;;
45490;SDS011;31237;45.586;13.782;2022-08-24T07:30:04;1.35;;;1.00;;
45490;SDS011;31237;45.586;13.782;2022-08-24T07:32:30;3.28;;;1.20;;
45490;SDS011;31237;45.586;13.782;2022-08-24T07:34:58;2.55;;;1.13;;
45490;SDS011;31237;45.586;13.782;2022-08-24T07:37:24;2.00;;;1.20;;
45490;SDS011;31237;45.586;13.782;2022-08-24T07:39:50;2.08;;;1.20;;
45490;SDS011;31237;45.586;13.782;2022-08-24T07:42:16;1.02;;;0.90;;
45490;SDS011;31237;45.586;13.782;2022-08-24T07:44:42;1.23;;;0.90;;
45490;SDS011;31237;45.586;13.782;2022-08-24T07:47:08;2.60;;;1.20;;
45490;SDS011;31237;45.586;13.782;2022-08-24T07:49:33;2.85;;;1.20;;
45490;SDS011;31237;45.586;13.782;2022-08-24T07:51:59;2.03;;;1.08;;
45490;SDS011;31237;45.586;13.782;2022-08-24T07:54:25;2.13;;;1.23;;
45490;SDS011;31237;45.586;13.782;2022-08-24T07:56:52;1.85;;;1.10;;
45490;SDS011;31237;45.586;13.782;2022-08-24T07:59:18;1.33;;;1.02;;
45490;SDS011;31237;45.586;13.782;2022-08-24T08:01:44;3.33;;;1.25;;
45490;SDS011;31237;45.586;13.782;2022-08-24T08:04:10;1.98;;;1.00;;
45490;SDS011;31237;45.586;13.782;2022-08-24T08:06:37;1.67;;;1.10;;
45490;SDS011;31237;45.586;13.782;2022-08-24T08:09:04;1.70;;;1.00;;
45490;SDS011;31237;45.586;13.782;2022-08-24T08:11:30;1.77;;;1.15;;
45490;SDS011;31237;45.586;13.782;2022-08-24T08:13:56;1.10;;;1.00;;
45490;SDS011;31237;45.586;13.782;2022-08-24T08:16:22;1.10;;;0.93;;
45490;SDS011;31237;45.586;13.782;2022-08-24T08:18:47;1.58;;;1.00;;
45490;SDS011;31237;45.586;13.782;2022-08-24T08:21:13;2.00;;;1.10;;
45490;SDS011;31237;45.586;13.782;2022-08-24T08:23:58;1.65;;;1.10;;
45490;SDS011;31237;45.586;13.782;2022-08-24T08:26:39;1.15;;;0.90;;
45490;SDS011;31237;45.586;13.782;2022-08-24T08:29:05;1.27;;;0.95;;
45490;SDS011;31237;45.586;13.782;2022-08-24T08:31:31;3.42;;;0.98;;
45490;SDS011;31237;45.586;13.782;2022-08-24T08:33:57;1.30;;;1.00;;
45490;SDS011;31237;45.586;13.782;2022-08-24T08:36:23;3.50;;;1.10;;
45490;SDS011;31237;45.586;13.782;2022-08-24T08:38:49;1.63;;;1.02;;
45490;SDS011;31237;45.586;13.782;2022-08-24T08:43:49;2.08;;;1.10;;
45490;SDS011;31237;45.586;13.782;2022-08-24T08:52:29;1.42;;;1.00;;
45490;SDS011;31237;45.586;13.782;2022-08-24T09:04:02;2.15;;;1.08;;
45490;SDS011;31237;45.586;13.782;2022-08-24T09:06:32;3.28;;;1.40;;
45490;SDS011;31237;45.586;13.782;2022-08-24T09:22:30;1.70;;;1.08;;
45490;SDS011;31237;45.586;13.782;2022-08-24T09:25:09;1.63;;;1.00;;
45490;SDS011;31237;45.586;13.782;2022-08-24T09:30:56;1.73;;;1.15;;
45490;SDS011;31237;45.586;13.782;2022-08-24T09:39:50;2.08;;;1.23;;
45490;SDS011;31237;45.586;13.782;2022-08-24T09:56:57;1.75;;;1.08;;
45490;SDS011;31237;45.586;13.782;2022-08-24T10:15:44;3.20;;;1.90;;
45490;SDS011;31237;45.586;13.782;2022-08-24T10:21:30;2.72;;;1.50;;
45490;SDS011;31237;45.586;13.782;2022-08-24T10:24:14;2.88;;;1.50;;
45490;SDS011;31237;45.586;13.782;2022-08-24T10:32:54;3.13;;;1.80;;
45490;SDS011;31237;45.586;13.782;2022-08-24T10:35:44;2.70;;;1.63;;
45490;SDS011;31237;45.586;13.782;2022-08-24T10:47:00;3.22;;;1.60;;
45490;SDS011;31237;45.586;13.782;2022-08-24T10:49:50;3.33;;;1.80;;
45490;SDS011;31237;45.586;13.782;2022-08-24T10:55:44;2.97;;;1.45;;
45490;SDS011;31237;45.586;13.782;2022-08-24T11:00:39;3.95;;;1.80;;
45490;SDS011;31237;45.586;13.782;2022-08-24T11:03:06;3.50;;;1.75;;
45490;SDS011;31237;45.586;13.782;2022-08-24T11:05:37;2.60;;;1.33;;
45490;SDS011;31237;45.586;13.782;2022-08-24T11:08:25;2.72;;;1.40;;
45490;SDS011;31237;45.586;13.782;2022-08-24T11:11:07;4.50;;;1.60;;
45490;SDS011;31237;45.586;13.782;2022-08-24T11:13:36;2.80;;;1.60;;
45490;SDS011;31237;45.586;13.782;2022-08-24T11:16:13;2.65;;;1.58;;
45490;SDS011;31237;45.586;13.782;2022-08-24T11:18:56;3.45;;;1.73;;
45490;SDS011;31237;45.586;13.782;2022-08-24T11:21:31;3.10;;;1.83;;
45490;SDS011;31237;45.586;13.782;2022-08-24T11:24:04;3.10;;;1.60;;
45490;SDS011;31237;45.586;13.782;2022-08-24T11:26:44;3.35;;;1.63;;
45490;SDS011;31237;45.586;13.782;2022-08-24T11:35:09;3.28;;;1.77;;
45490;SDS011;31237;45.586;13.782;2022-08-24T11:37:51;4.15;;;1.90;;
45490;SDS011;31237;45.586;13.782;2022-08-24T11:40:29;3.38;;;1.70;;
45490;SDS011;31237;45.586;13.782;2022-08-24T11:51:19;3.22;;;1.70;;
45490;SDS011;31237;45.586;13.782;2022-08-24T11:56:26;3.67;;;1.90;;
45490;SDS011;31237;45.586;13.782;2022-08-24T12:01:58;3.15;;;1.75;;
45490;SDS011;31237;45.586;13.782;2022-08-24T12:04:37;4.00;;;1.67;;
45490;SDS011;31237;45.586;13.782;2022-08-24T12:07:31;3.38;;;1.70;;
45490;SDS011;31237;45.586;13.782;2022-08-24T12:15:17;3.63;;;2.15;;
45490;SDS011;31237;45.586;13.782;2022-08-24T12:18:01;4.05;;;1.80;;
45490;SDS011;31237;45.586;13.782;2022-08-24T12:20:40;4.40;;;2.05;;
45490;SDS011;31237;45.586;13.782;2022-08-24T12:23:10;4.32;;;2.00;;
45490;SDS011;31237;45.586;13.782;2022-08-24T12:29:00;3.67;;;2.05;;
45490;SDS011;31237;45.586;13.782;2022-08-24T12:31:40;3.00;;;1.60;;
45490;SDS011;31237;45.586;13.782;2022-08-24T12:34:21;3.75;;;1.70;;
45490;SDS011;31237;45.586;13.782;2022-08-24T12:37:05;4.22;;;2.33;;
45490;SDS011;31237;45.586;13.782;2022-08-24T12:39:41;4.03;;;2.00;;
45490;SDS011;31237;45.586;13.782;2022-08-24T12:42:45;3.33;;;1.92;;
45490;SDS011;31237;45.586;13.782;2022-08-24T12:45:28;2.85;;;1.70;;
45490;SDS011;31237;45.586;13.782;2022-08-24T12:47:59;3.03;;;1.80;;
45490;SDS011;31237;45.586;13.782;2022-08-24T12:53:16;3.25;;;1.60;;
45490;SDS011;31237;45.586;13.782;2022-08-24T13:01:44;3.55;;;1.90;;
45490;SDS011;31237;45.586;13.782;2022-08-24T13:06:58;3.92;;;2.00;;
45490;SDS011;31237;45.586;13.782;2022-08-24T13:17:48;3.25;;;1.70;;
45490;SDS011;31237;45.586;13.782;2022-08-24T13:28:26;4.30;;;1.95;;
45490;SDS011;31237;45.586;13.782;2022-08-24T13:37:14;3.50;;;1.98;;
45490;SDS011;31237;45.586;13.782;2022-08-24T13:42:35;5.88;;;2.50;;
45490;SDS011;31237;45.586;13.782;2022-08-24T13:54:02;4.55;;;2.28;;
45490;SDS011;31237;45.586;13.782;2022-08-24T14:05:16;4.78;;;2.40;;
45490;SDS011;31237;45.586;13.782;2022-08-24T14:33:02;3.35;;;1.80;;
45490;SDS011;31237;45.586;13.782;2022-08-24T14:41:25;3.35;;;2.30;;
45490;SDS011;31237;45.586;13.782;2022-08-24T14:44:28;3.88;;;1.88;;
45490;SDS011;31237;45.586;13.782;2022-08-24T14:47:05;3.88;;;2.00;;
45490;SDS011;31237;45.586;13.782;2022-08-24T15:09:17;3.65;;;1.80;;
45490;SDS011;31237;45.586;13.782;2022-08-24T15:11:49;3.53;;;2.03;;
45490;SDS011;31237;45.586;13.782;2022-08-24T15:17:02;3.60;;;1.90;;
45490;SDS011;31237;45.586;13.782;2022-08-24T15:30:05;3.73;;;2.20;;
45490;SDS011;31237;45.586;13.782;2022-08-24T15:33:24;4.05;;;2.30;;
45490;SDS011;31237;45.586;13.782;2022-08-24T15:35:41;3.95;;;2.15;;
45490;SDS011;31237;45.586;13.782;2022-08-24T15:38:32;3.50;;;1.95;;
45490;SDS011;31237;45.586;13.782;2022-08-24T15:43:58;3.58;;;2.10;;
45490;SDS011;31237;45.586;13.782;2022-08-24T15:46:55;4.88;;;2.15;;
45490;SDS011;31237;45.586;13.782;2022-08-24T15:50:27;2.75;;;1.52;;
45490;SDS011;31237;45.586;13.782;2022-08-24T15:55:03;3.90;;;1.85;;
45490;SDS011;31237;45.586;13.782;2022-08-24T15:57:38;3.10;;;1.75;;
45490;SDS011;31237;45.586;13.782;2022-08-24T16:00:14;3.13;;;1.80;;
45490;SDS011;31237;45.586;13.782;2022-08-24T16:06:18;2.92;;;1.65;;
45490;SDS011;31237;45.586;13.782;2022-08-24T16:11:57;3.33;;;1.80;;
45490;SDS011;31237;45.586;13.782;2022-08-24T16:14:48;5.45;;;2.15;;
45490;SDS011;31237;45.586;13.782;2022-08-24T16:19:59;3.50;;;1.73;;
45490;SDS011;31237;45.586;13.782;2022-08-24T16:22:35;4.72;;;2.03;;
45490;SDS011;31237;45.586;13.782;2022-08-24T16:25:48;3.63;;;2.10;;
45490;SDS011;31237;45.586;13.782;2022-08-24T16:27:57;3.70;;;2.03;;
45490;SDS011;31237;45.586;13.782;2022-08-24T16:33:09;3.95;;;2.10;;
45490;SDS011;31237;45.586;13.782;2022-08-24T16:35:55;3.13;;;1.73;;
45490;SDS011;31237;45.586;13.782;2022-08-24T16:38:23;3.85;;;1.60;;
45490;SDS011;31237;45.586;13.782;2022-08-24T16:40:49;3.47;;;1.67;;
45490;SDS011;31237;45.586;13.782;2022-08-24T16:43:15;3.15;;;1.77;;
45490;SDS011;31237;45.586;13.782;2022-08-24T16:45:41;3.50;;;2.00;;
45490;SDS011;31237;45.586;13.782;2022-08-24T16:48:07;3.47;;;1.98;;
45490;SDS011;31237;45.586;13.782;2022-08-24T16:50:33;3.55;;;1.92;;
45490;SDS011;31237;45.586;13.782;2022-08-24T16:52:58;4.53;;;1.98;;
45490;SDS011;31237;45.586;13.782;2022-08-24T16:55:24;2.95;;;1.58;;
45490;SDS011;31237;45.586;13.782;2022-08-24T16:57:52;3.03;;;1.70;;
45490;SDS011;31237;45.586;13.782;2022-08-24T17:00:19;2.85;;;1.65;;
45490;SDS011;31237;45.586;13.782;2022-08-24T17:02:46;5.32;;;1.77;;
45490;SDS011;31237;45.586;13.782;2022-08-24T17:05:13;2.88;;;1.70;;
45490;SDS011;31237;45.586;13.782;2022-08-24T17:07:40;3.53;;;1.92;;
45490;SDS011;31237;45.586;13.782;2022-08-24T17:10:07;4.55;;;1.90;;
45490;SDS011;31237;45.586;13.782;2022-08-24T17:12:35;3.72;;;1.85;;
45490;SDS011;31237;45.586;13.782;2022-08-24T17:15:04;3.38;;;1.85;;
45490;SDS011;31237;45.586;13.782;2022-08-24T17:17:31;4.13;;;2.10;;
45490;SDS011;31237;45.586;13.782;2022-08-24T17:19:57;5.10;;;2.08;;
45490;SDS011;31237;45.586;13.782;2022-08-24T17:22:23;3.22;;;1.80;;
45490;SDS011;31237;45.586;13.782;2022-08-24T17:24:50;3.42;;;2.00;;
45490;SDS011;31237;45.586;13.782;2022-08-24T17:27:17;3.65;;;2.10;;
45490;SDS011;31237;45.586;13.782;2022-08-24T17:29:54;4.35;;;2.10;;
45490;SDS011;31237;45.586;13.782;2022-08-24T17:32:20;2.72;;;1.60;;
45490;SDS011;31237;45.586;13.782;2022-08-24T17:34:46;3.40;;;1.73;;
45490;SDS011;31237;45.586;13.782;2022-08-24T17:37:11;3.20;;;1.80;;
45490;SDS011;31237;45.586;13.782;2022-08-24T17:39:37;2.92;;;1.70;;
45490;SDS011;31237;45.586;13.782;2022-08-24T17:42:03;3.75;;;1.88;;
45490;SDS011;31237;45.586;13.782;2022-08-24T17:44:30;2.85;;;1.70;;
45490;SDS011;31237;45.586;13.782;2022-08-24T17:46:58;5.25;;;1.75;;
45490;SDS011;31237;45.586;13.782;2022-08-24T17:49:28;3.47;;;1.75;;
45490;SDS011;31237;45.586;13.782;2022-08-24T17:51:55;3.35;;;1.88;;
45490;SDS011;31237;45.586;13.782;2022-08-24T17:54:22;2.80;;;1.73;;
45490;SDS011;31237;45.586;13.782;2022-08-24T17:56:49;4.20;;;2.00;;
45490;SDS011;31237;45.586;13.782;2022-08-24T17:59:16;3.58;;;1.88;;
45490;SDS011;31237;45.586;13.782;2022-08-24T18:04:19;4.65;;;2.25;;
45490;SDS011;31237;45.586;13.782;2022-08-24T18:06:46;4.32;;;1.85;;
45490;SDS011;31237;45.586;13.782;2022-08-24T18:09:15;3.50;;;1.92;;
45490;SDS011;31237;45.586;13.782;2022-08-24T18:11:46;3.40;;;1.88;;
45490;SDS011;31237;45.586;13.782;2022-08-24T18:14:12;3.60;;;1.80;;
45490;SDS011;31237;45.586;13.782;2022-08-24T18:16:37;3.67;;;2.05;;
45490;SDS011;31237;45.586;13.782;2022-08-24T18:19:03;4.45;;;2.20;;
45490;SDS011;31237;45.586;13.782;2022-08-24T18:21:30;6.82;;;2.15;;
45490;SDS011;31237;45.586;13.782;2022-08-24T18:23:55;3.47;;;2.08;;
45490;SDS011;31237;45.586;13.782;2022-08-24T18:26:25;3.25;;;1.83;;
45490;SDS011;31237;45.586;13.782;2022-08-24T18:28:52;4.65;;;2.17;;
45490;SDS011;31237;45.586;13.782;2022-08-24T18:31:19;3.83;;;2.30;;
45490;SDS011;31237;45.586;13.782;2022-08-24T18:33:48;3.92;;;1.85;;
45490;SDS011;31237;45.586;13.782;2022-08-24T18:36:14;3.42;;;1.90;;
45490;SDS011;31237;45.586;13.782;2022-08-24T18:38:40;5.07;;;2.20;;
45490;SDS011;31237;45.586;13.782;2022-08-24T18:41:05;3.67;;;2.17;;
45490;SDS011;31237;45.586;13.782;2022-08-24T18:43:31;3.45;;;1.90;;
45490;SDS011;31237;45.586;13.782;2022-08-24T18:45:57;3.55;;;1.90;;
45490;SDS011;31237;45.586;13.782;2022-08-24T18:48:23;5.32;;;1.95;;
45490;SDS011;31237;45.586;13.782;2022-08-24T18:50:50;3.70;;;2.03;;
45490;SDS011;31237;45.586;13.782;2022-08-24T18:53:16;3.75;;;1.88;;
45490;SDS011;31237;45.586;13.782;2022-08-24T18:55:43;3.05;;;1.90;;
45490;SDS011;31237;45.586;13.782;2022-08-24T18:58:11;4.53;;;2.20;;
45490;SDS011;31237;45.586;13.782;2022-08-24T19:00:38;3.38;;;1.85;;
45490;SDS011;31237;45.586;13.782;2022-08-24T19:03:06;6.43;;;1.80;;
45490;SDS011;31237;45.586;13.782;2022-08-24T19:05:33;3.70;;;1.90;;
45490;SDS011;31237;45.586;13.782;2022-08-24T19:07:59;3.72;;;2.00;;
45490;SDS011;31237;45.586;13.782;2022-08-24T19:10:26;3.42;;;1.80;;
45490;SDS011;31237;45.586;13.782;2022-08-24T19:12:54;2.88;;;1.73;;
45490;SDS011;31237;45.586;13.782;2022-08-24T19:15:24;3.30;;;1.90;;
45490;SDS011;31237;45.586;13.782;2022-08-24T19:17:50;3.90;;;2.00;;
45490;SDS011;31237;45.586;13.782;2022-08-24T19:20:16;3.70;;;2.17;;